createdAt,value
2023-05-03T00:00:08.260Z,72.90
2023-05-03T00:02:40.068Z,72.36
2023-05-03T00:05:09.731Z,71.17
2023-05-03T00:07:37.446Z,71.88
2023-05-03T00:10:08.298Z,72.17
2023-05-03T00:12:36.036Z,72.88
2023-05-03T00:15:03.462Z,74.22
2023-05-03T00:17:30.986Z,75.08
2023-05-03T00:19:58.467Z,74.53
2023-05-03T00:22:26.811Z,74.84
2023-05-03T00:24:54.296Z,75.67
2023-05-03T00:27:23.947Z,76.05
2023-05-03T00:29:52.270Z,75.63
2023-05-03T00:32:19.725Z,75.47
2023-05-03T00:34:47.167Z,75.78
2023-05-03T00:37:14.644Z,75.72
2023-05-03T00:39:42.102Z,75.68
2023-05-03T00:42:09.602Z,76.34
2023-05-03T00:44:38.391Z,76.49
2023-05-03T00:47:06.912Z,76.83
2023-05-03T00:49:34.618Z,76.03
2023-05-03T00:52:02.348Z,74.17
2023-05-03T00:54:32.930Z,75.03
2023-05-03T00:57:01.778Z,76.28
2023-05-03T00:59:29.720Z,76.26
2023-05-03T01:01:58.704Z,76.67
2023-05-03T01:04:26.742Z,77.22
2023-05-03T01:07:04.471Z,76.57
2023-05-03T01:09:40.446Z,77.00
2023-05-03T01:12:20.383Z,76.59
2023-05-03T01:15:00.724Z,77.92
2023-05-03T01:17:36.378Z,78.97
2023-05-03T01:20:08.645Z,79.56
2023-05-03T01:22:44.540Z,79.25
2023-05-03T01:25:16.077Z,77.27
2023-05-03T01:27:44.158Z,76.49
2023-05-03T01:30:13.787Z,78.27
2023-05-03T01:32:57.479Z,78.49
2023-05-03T01:35:30.244Z,78.59
2023-05-03T01:37:58.493Z,79.31
2023-05-03T01:40:29.165Z,79.07
2023-05-03T01:42:57.684Z,79.22
2023-05-03T01:45:26.517Z,79.05
2023-05-03T01:47:54.005Z,78.80
2023-05-03T01:50:21.494Z,79.46
2023-05-03T01:52:51.194Z,79.83
2023-05-03T01:55:18.688Z,79.55
2023-05-03T01:57:47.478Z,79.09
2023-05-03T02:00:16.146Z,79.46
2023-05-03T02:02:43.629Z,79.64
2023-05-03T02:05:11.706Z,79.54
2023-05-03T02:07:39.156Z,80.19
2023-05-03T02:10:08.202Z,78.48
2023-05-03T02:12:35.696Z,78.56
2023-05-03T02:15:05.030Z,79.55
2023-05-03T02:17:32.552Z,79.72
2023-05-03T02:20:00.048Z,80.35
2023-05-03T02:22:27.665Z,80.01
2023-05-03T02:24:55.510Z,78.79
2023-05-03T02:27:23.350Z,79.33
2023-05-03T02:29:51.135Z,79.51
2023-05-03T02:32:20.897Z,80.34
2023-05-03T02:34:50.444Z,80.54
2023-05-03T02:37:17.954Z,80.20
2023-05-03T02:39:45.396Z,79.95
2023-05-03T02:42:12.822Z,80.76
2023-05-03T02:44:40.380Z,80.18
2023-05-03T02:47:08.213Z,80.13
2023-05-03T02:49:37.057Z,80.43
2023-05-03T02:52:04.571Z,80.71
2023-05-03T02:54:32.304Z,80.97
2023-05-03T02:56:59.749Z,80.79
2023-05-03T02:59:27.200Z,81.06
2023-05-03T03:01:54.724Z,81.17
2023-05-03T03:04:22.260Z,80.67
2023-05-03T03:06:53.457Z,80.97
2023-05-03T03:09:20.989Z,81.18
2023-05-03T03:11:48.486Z,80.94
2023-05-03T03:14:15.971Z,80.95
2023-05-03T03:16:43.472Z,80.48
2023-05-03T03:19:11.208Z,80.52
2023-05-03T03:21:38.692Z,80.83
2023-05-03T03:24:08.040Z,78.91
2023-05-03T03:26:35.645Z,78.93
2023-05-03T03:29:03.096Z,80.37
2023-05-03T03:31:31.018Z,79.41
2023-05-03T03:33:58.482Z,80.07
2023-05-03T03:36:27.950Z,79.65
2023-05-03T03:38:55.772Z,79.64
2023-05-03T03:41:24.676Z,79.32
2023-05-03T03:43:52.153Z,79.61
2023-05-03T03:46:19.706Z,78.86
2023-05-03T03:48:47.177Z,79.06
2023-05-03T03:51:14.608Z,79.22
2023-05-03T03:53:42.196Z,79.10
2023-05-03T03:56:09.696Z,78.98
2023-05-03T03:58:38.583Z,78.28
2023-05-03T04:01:06.704Z,77.95
2023-05-03T04:03:34.610Z,78.21
2023-05-03T04:06:02.362Z,78.29
2023-05-03T04:08:30.065Z,78.18
2023-05-03T04:10:57.561Z,78.17
2023-05-03T04:13:25.066Z,76.38
2023-05-03T04:15:56.821Z,76.72
2023-05-03T04:18:24.319Z,76.27
2023-05-03T04:20:52.057Z,73.56
2023-05-03T04:23:19.587Z,73.54
2023-05-03T04:25:48.513Z,73.62
2023-05-03T04:28:16.141Z,74.09
2023-05-03T04:30:44.414Z,73.56
2023-05-03T04:33:13.593Z,74.21
2023-05-03T04:35:41.376Z,75.18
2023-05-03T04:38:09.584Z,73.82
2023-05-03T04:40:37.477Z,72.89
2023-05-03T04:43:05.301Z,74.13
2023-05-03T04:45:32.950Z,75.27
2023-05-03T04:48:00.657Z,75.13
2023-05-03T04:50:29.627Z,74.15
2023-05-03T04:52:57.160Z,75.37
2023-05-03T04:55:24.611Z,75.69
2023-05-03T04:57:52.040Z,75.25
2023-05-03T05:00:21.287Z,75.49
2023-05-03T05:02:48.796Z,74.98
2023-05-03T05:05:18.066Z,75.88
2023-05-03T05:07:48.414Z,76.17
2023-05-03T05:10:16.083Z,75.97
2023-05-03T05:12:43.577Z,75.40
2023-05-03T05:15:12.135Z,75.13
2023-05-03T05:17:39.738Z,75.19
2023-05-03T05:20:12.170Z,74.68
2023-05-03T05:22:39.725Z,73.86
2023-05-03T05:25:09.645Z,72.52
2023-05-03T05:27:37.154Z,73.54
2023-05-03T05:30:06.404Z,74.19
2023-05-03T05:32:34.096Z,73.09
2023-05-03T05:35:05.024Z,72.42
2023-05-03T05:37:32.635Z,71.76
2023-05-03T05:40:00.143Z,72.29
2023-05-03T05:42:29.020Z,71.88
2023-05-03T05:44:57.364Z,71.83
2023-05-03T05:47:25.515Z,72.55
2023-05-03T05:49:53.134Z,73.23
2023-05-03T05:52:20.609Z,73.17
2023-05-03T05:54:48.090Z,72.41
2023-05-03T05:57:15.600Z,71.76
2023-05-03T05:59:44.472Z,70.83
2023-05-03T06:02:17.647Z,71.24
2023-05-03T06:04:46.700Z,70.40
2023-05-03T06:07:15.410Z,70.22
2023-05-03T06:09:43.266Z,69.43
2023-05-03T06:12:11.383Z,68.63
2023-05-03T06:14:42.223Z,68.28
2023-05-03T06:17:17.886Z,67.63
2023-05-03T06:19:45.938Z,66.94
2023-05-03T06:22:14.152Z,66.93
2023-05-03T06:24:41.624Z,68.44
2023-05-03T06:27:09.124Z,67.83
2023-05-03T06:29:38.089Z,65.94
2023-05-03T06:32:06.197Z,66.27
2023-05-03T06:34:35.015Z,66.93
2023-05-03T06:37:02.612Z,66.09
2023-05-03T06:39:30.918Z,65.59
2023-05-03T06:41:58.406Z,65.13
2023-05-03T06:44:25.948Z,63.98
2023-05-03T06:46:53.567Z,64.08
2023-05-03T06:49:22.100Z,62.71
2023-05-03T06:51:51.008Z,63.96
2023-05-03T06:54:19.984Z,63.75
2023-05-03T06:56:47.435Z,63.28
2023-05-03T06:59:14.910Z,63.19
2023-05-03T07:01:42.403Z,62.44
2023-05-03T07:04:10.018Z,61.81
2023-05-03T07:06:48.246Z,62.40
2023-05-03T07:09:41.538Z,62.48
2023-05-03T07:12:10.579Z,60.78
2023-05-03T07:14:38.962Z,62.25
2023-05-03T07:17:06.507Z,61.49
2023-05-03T07:19:33.988Z,61.77
2023-05-03T07:22:03.143Z,63.10
2023-05-03T07:24:31.949Z,62.75
2023-05-03T07:26:59.427Z,61.57
2023-05-03T07:29:27.441Z,60.61
2023-05-03T07:31:55.207Z,60.79
2023-05-03T07:34:22.754Z,59.92
2023-05-03T07:36:50.368Z,59.57
2023-05-03T07:39:17.918Z,59.02
2023-05-03T07:41:46.865Z,57.96
2023-05-03T07:44:14.337Z,58.39
2023-05-03T07:46:41.773Z,58.61
2023-05-03T07:49:09.281Z,56.68
2023-05-03T07:51:37.178Z,57.38
2023-05-03T07:54:05.319Z,56.98
2023-05-03T07:56:32.890Z,56.75
2023-05-03T08:01:32.069Z,55.81
2023-05-03T08:03:59.873Z,55.11
2023-05-03T08:06:28.212Z,55.11
2023-05-03T08:08:56.128Z,54.44
2023-05-03T08:11:23.593Z,55.07
2023-05-03T08:13:51.053Z,55.79
2023-05-03T08:16:20.074Z,54.55
2023-05-03T08:18:47.762Z,54.58
2023-05-03T08:21:17.354Z,54.17
2023-05-03T08:23:44.918Z,53.06
2023-05-03T08:26:14.562Z,53.59
2023-05-03T08:28:42.447Z,52.57
2023-05-03T08:31:10.130Z,52.50
2023-05-03T08:33:39.024Z,53.01
2023-05-03T08:36:07.125Z,52.48
2023-05-03T08:38:36.484Z,51.96
2023-05-03T08:41:15.487Z,52.95
2023-05-03T08:43:45.802Z,51.41
2023-05-03T08:46:13.372Z,52.11
2023-05-03T08:48:44.113Z,50.49
2023-05-03T08:51:12.478Z,50.76
2023-05-03T08:53:39.964Z,49.76
2023-05-03T08:56:08.806Z,50.43
2023-05-03T08:58:37.549Z,48.87
2023-05-03T09:01:06.386Z,50.32
2023-05-03T09:03:34.942Z,50.41
2023-05-03T09:06:04.386Z,49.88
2023-05-03T09:08:32.395Z,50.29
2023-05-03T09:10:59.875Z,48.92
2023-05-03T09:13:32.188Z,50.30
2023-05-03T09:15:59.662Z,48.81
2023-05-03T09:18:27.328Z,48.25
2023-05-03T09:20:55.981Z,48.70
2023-05-03T09:23:32.638Z,48.61
2023-05-03T09:26:00.821Z,48.15
2023-05-03T09:28:28.350Z,47.28
2023-05-03T09:31:05.959Z,47.44
2023-05-03T09:33:34.248Z,46.84
2023-05-03T09:36:03.842Z,48.03
2023-05-03T09:38:34.717Z,48.49
2023-05-03T09:41:02.487Z,48.89
2023-05-03T09:43:29.963Z,47.26
2023-05-03T09:46:09.596Z,46.38
2023-05-03T09:48:37.571Z,46.22
2023-05-03T09:51:06.542Z,44.95
2023-05-03T09:53:36.233Z,45.48
2023-05-03T09:56:05.165Z,44.07
2023-05-03T09:58:35.001Z,44.45
2023-05-03T10:01:02.683Z,44.06
2023-05-03T10:03:41.954Z,44.12
2023-05-03T10:06:20.702Z,43.50
2023-05-03T10:08:54.301Z,44.54
2023-05-03T10:11:26.654Z,44.86
2023-05-03T10:13:54.433Z,44.51
2023-05-03T10:16:27.196Z,44.39
2023-05-03T10:19:12.209Z,43.46
2023-05-03T10:21:52.479Z,44.01
2023-05-03T10:24:21.418Z,43.66
2023-05-03T10:26:51.351Z,42.43
2023-05-03T10:29:52.026Z,42.32
2023-05-03T10:32:33.383Z,41.14
2023-05-03T10:35:03.566Z,43.43
2023-05-03T10:37:31.654Z,44.63
2023-05-03T10:40:07.148Z,41.71
2023-05-03T10:42:34.658Z,42.01
2023-05-03T10:45:03.664Z,42.39
2023-05-03T10:47:31.465Z,41.78
2023-05-03T10:50:26.152Z,41.56
2023-05-03T10:52:53.680Z,42.00
2023-05-03T10:55:24.906Z,40.96
2023-05-03T10:57:55.533Z,40.30
2023-05-03T11:00:28.729Z,40.66
2023-05-03T11:03:09.357Z,40.19
2023-05-03T11:05:37.573Z,41.09
2023-05-03T11:08:13.375Z,39.65
2023-05-03T11:10:42.767Z,38.89
2023-05-03T11:13:10.294Z,40.28
2023-05-03T11:15:37.771Z,39.99
2023-05-03T11:18:07.028Z,39.89
2023-05-03T11:20:34.961Z,39.31
2023-05-03T11:23:03.087Z,40.14
2023-05-03T11:25:30.833Z,38.60
2023-05-03T11:28:00.355Z,38.94
2023-05-03T11:30:28.063Z,38.43
2023-05-03T11:32:56.133Z,37.69
2023-05-03T11:35:26.748Z,37.87
2023-05-03T11:37:54.667Z,40.34
2023-05-03T11:40:22.172Z,38.76
2023-05-03T11:42:54.007Z,39.53
2023-05-03T11:45:24.661Z,37.89
2023-05-03T11:47:53.149Z,37.44
2023-05-03T11:50:28.359Z,37.85
2023-05-03T11:52:56.970Z,39.42
2023-05-03T11:55:24.638Z,37.54
2023-05-03T11:57:52.244Z,38.54
2023-05-03T12:00:22.519Z,37.82
2023-05-03T12:02:51.527Z,37.29
2023-05-03T12:05:20.513Z,37.30
2023-05-03T12:07:48.491Z,37.66
2023-05-03T12:10:23.098Z,36.86
2023-05-03T12:12:57.098Z,36.96
2023-05-03T12:15:34.084Z,36.61
2023-05-03T12:18:05.352Z,36.33
2023-05-03T12:21:28.556Z,35.87
2023-05-03T12:23:21.810Z,34.78
2023-05-03T12:25:52.819Z,34.15
2023-05-03T12:28:21.509Z,34.84
2023-05-03T12:30:52.679Z,35.10
2023-05-03T12:33:23.255Z,35.31
2023-05-03T12:35:53.427Z,34.21
2023-05-03T12:38:23.917Z,34.82
2023-05-03T12:40:52.987Z,35.47
2023-05-03T12:43:20.776Z,35.28
2023-05-03T12:46:02.861Z,35.72
2023-05-03T12:48:37.358Z,34.63
2023-05-03T12:51:17.852Z,34.17
2023-05-03T12:53:47.475Z,34.60
2023-05-03T12:56:15.866Z,35.16
2023-05-03T12:59:11.317Z,33.12
2023-05-03T13:04:44.449Z,33.25
2023-05-03T13:06:58.878Z,34.17
2023-05-03T13:09:37.922Z,33.61
2023-05-03T13:12:17.322Z,33.62
2023-05-03T13:14:44.871Z,33.71
2023-05-03T13:17:13.364Z,34.33
2023-05-03T13:19:43.383Z,32.68
2023-05-03T13:22:11.528Z,33.83
2023-05-03T13:24:39.038Z,33.39
2023-05-03T13:27:06.508Z,33.29
2023-05-03T13:29:34.436Z,33.77
2023-05-03T13:32:02.012Z,32.63
2023-05-03T13:34:29.854Z,33.34
2023-05-03T13:36:58.793Z,32.92
2023-05-03T13:39:26.526Z,31.38
2023-05-03T13:41:53.990Z,32.71
2023-05-03T13:44:25.123Z,31.86
2023-05-03T13:46:53.404Z,32.43
2023-05-03T13:49:21.085Z,33.74
2023-05-03T13:51:48.747Z,30.91
2023-05-03T13:54:17.603Z,31.98
2023-05-03T13:56:45.258Z,33.27
2023-05-03T13:59:14.965Z,32.43
2023-05-03T14:01:43.582Z,31.99
2023-05-03T14:04:11.441Z,31.93
2023-05-03T14:06:41.147Z,33.47
2023-05-03T14:09:09.733Z,32.41
2023-05-03T14:11:41.364Z,31.75
2023-05-03T14:14:08.830Z,32.31
2023-05-03T14:16:41.644Z,33.06
2023-05-03T14:19:11.683Z,33.04
2023-05-03T14:21:39.742Z,32.99
2023-05-03T14:24:07.536Z,32.64
2023-05-03T14:26:35.055Z,32.09
2023-05-03T14:29:05.527Z,33.01
2023-05-03T14:31:34.098Z,32.54
2023-05-03T14:34:01.761Z,32.88
2023-05-03T14:36:33.166Z,31.96
2023-05-03T14:39:10.033Z,32.90
2023-05-03T14:41:37.559Z,31.90
2023-05-03T14:44:06.760Z,32.13
2023-05-03T14:46:34.379Z,32.16
2023-05-03T14:49:01.988Z,31.99
2023-05-03T14:51:29.558Z,32.77
2023-05-03T14:53:57.016Z,32.41
2023-05-03T14:56:24.546Z,32.86
2023-05-03T14:58:51.990Z,32.44
2023-05-03T15:01:21.591Z,32.19
2023-05-03T15:03:49.404Z,32.37
2023-05-03T15:06:23.666Z,34.06
2023-05-03T15:08:52.245Z,32.85
2023-05-03T15:11:19.730Z,33.08
2023-05-03T15:13:47.714Z,33.17
2023-05-03T15:16:15.421Z,33.24
2023-05-03T15:18:47.997Z,33.48
2023-05-03T15:21:16.656Z,32.83
2023-05-03T15:23:44.893Z,33.08
2023-05-03T15:26:12.397Z,33.25
2023-05-03T15:28:39.910Z,33.72
2023-05-03T15:31:07.456Z,33.87
2023-05-03T15:33:41.627Z,33.33
2023-05-03T15:36:11.921Z,34.00
2023-05-03T15:38:39.970Z,34.06
2023-05-03T15:41:07.915Z,34.78
2023-05-03T15:43:35.649Z,34.22
2023-05-03T15:46:03.231Z,34.26
2023-05-03T15:48:30.970Z,36.25
2023-05-03T15:50:58.435Z,34.86
2023-05-03T15:53:27.806Z,34.86
2023-05-03T15:55:57.668Z,35.53
2023-05-03T15:58:25.268Z,35.62
2023-05-03T16:00:54.223Z,35.41
2023-05-03T16:03:21.965Z,35.49
2023-05-03T16:05:49.570Z,36.10
2023-05-03T16:08:17.107Z,36.06
2023-05-03T16:10:45.930Z,35.64
2023-05-03T16:13:13.963Z,36.45
2023-05-03T16:15:41.529Z,37.16
2023-05-03T16:18:09.034Z,37.44
2023-05-03T16:20:36.593Z,37.32
2023-05-03T16:23:04.116Z,36.76
2023-05-03T16:25:31.814Z,37.03
2023-05-03T16:28:00.612Z,37.27
2023-05-03T16:30:28.298Z,37.09
2023-05-03T16:32:55.974Z,37.63
2023-05-03T16:35:23.498Z,37.90
2023-05-03T16:37:51.324Z,38.43
2023-05-03T16:40:18.973Z,37.91
2023-05-03T16:42:49.782Z,38.17
2023-05-03T16:45:19.577Z,38.66
2023-05-03T16:47:48.123Z,38.58
2023-05-03T16:50:17.834Z,37.89
2023-05-03T16:52:45.797Z,38.27
2023-05-03T16:55:13.378Z,38.46
2023-05-03T16:57:41.192Z,38.54
2023-05-03T17:00:10.203Z,38.79
2023-05-03T17:02:39.965Z,38.24
2023-05-03T17:05:08.761Z,38.55
2023-05-03T17:07:36.610Z,37.54
2023-05-03T17:10:06.176Z,34.50
2023-05-03T17:12:34.305Z,28.72
2023-05-03T17:15:01.973Z,28.36
2023-05-03T17:17:29.517Z,29.94
2023-05-03T17:19:58.432Z,31.14
2023-05-03T17:22:25.953Z,33.89
2023-05-03T17:24:54.584Z,34.88
2023-05-03T17:27:24.170Z,35.37
2023-05-03T17:29:51.754Z,36.24
2023-05-03T17:32:19.262Z,37.25
2023-05-03T17:34:46.746Z,39.20
2023-05-03T17:37:15.571Z,37.53
2023-05-03T17:39:43.104Z,37.82
2023-05-03T17:42:10.607Z,40.68
2023-05-03T17:44:38.054Z,38.63
2023-05-03T17:47:05.595Z,38.29
2023-05-03T17:49:33.433Z,39.36
2023-05-03T17:52:01.041Z,38.66
2023-05-03T17:54:30.527Z,39.64
2023-05-03T17:56:57.984Z,40.33
2023-05-03T17:59:25.478Z,40.73
2023-05-03T18:01:53.047Z,40.75
2023-05-03T18:04:20.513Z,39.78
2023-05-03T18:06:47.994Z,39.35
2023-05-03T18:09:16.244Z,39.88
2023-05-03T18:11:45.392Z,39.54
2023-05-03T18:14:13.217Z,39.47
2023-05-03T18:16:41.413Z,40.21
2023-05-03T18:19:09.762Z,40.16
2023-05-03T18:21:37.224Z,40.80
2023-05-03T18:24:05.184Z,40.46
2023-05-03T18:26:32.634Z,40.11
2023-05-03T18:29:01.437Z,39.89
2023-05-03T18:31:28.948Z,40.35
2023-05-03T18:33:56.377Z,39.43
2023-05-03T18:36:23.941Z,39.84
2023-05-03T18:38:53.553Z,40.09
2023-05-03T18:41:21.073Z,40.65
2023-05-03T18:43:49.523Z,40.58
2023-05-03T18:46:19.851Z,41.16
2023-05-03T18:48:48.373Z,40.98
2023-05-03T18:51:16.383Z,41.87
2023-05-03T18:53:44.154Z,41.89
2023-05-03T18:56:11.597Z,42.71
2023-05-03T18:58:39.068Z,41.14
2023-05-03T19:01:06.599Z,41.47
2023-05-03T19:03:36.037Z,43.84
2023-05-03T19:06:04.156Z,42.74
2023-05-03T19:08:32.052Z,42.80
2023-05-03T19:11:08.040Z,43.66
2023-05-03T19:13:35.884Z,43.97
2023-05-03T19:16:03.452Z,43.76
2023-05-03T19:18:31.525Z,44.63
2023-05-03T19:21:01.308Z,43.35
2023-05-03T19:23:28.781Z,44.42
2023-05-03T19:25:56.555Z,43.76
2023-05-03T19:28:24.052Z,42.80
2023-05-03T19:30:51.998Z,44.30
2023-05-03T19:33:19.610Z,43.22
2023-05-03T19:35:47.517Z,44.23
2023-05-03T19:38:16.351Z,45.66
2023-05-03T19:40:56.267Z,44.54
2023-05-03T19:43:23.762Z,44.53
2023-05-03T19:45:51.316Z,46.51
2023-05-03T19:48:18.997Z,45.59
2023-05-03T19:50:47.676Z,45.57
2023-05-03T19:53:16.502Z,45.20
2023-05-03T19:55:54.192Z,46.36
2023-05-03T19:58:21.685Z,46.75
2023-05-03T20:00:49.136Z,44.94
2023-05-03T20:03:16.829Z,46.66
2023-05-03T20:05:44.940Z,45.03
2023-05-03T20:08:12.825Z,45.04
2023-05-03T20:10:43.326Z,45.68
2023-05-03T20:13:12.315Z,46.29
2023-05-03T20:15:39.841Z,45.76
2023-05-03T20:18:07.564Z,45.55
2023-05-03T20:20:35.265Z,46.09
2023-05-03T20:23:02.752Z,46.82
2023-05-03T20:25:30.314Z,47.30
2023-05-03T20:27:59.125Z,47.01
2023-05-03T20:30:28.116Z,46.49
2023-05-03T20:32:55.698Z,46.24
2023-05-03T20:35:23.241Z,47.90
2023-05-03T20:37:50.697Z,49.22
2023-05-03T20:40:18.258Z,49.81
2023-05-03T20:42:45.855Z,51.72
2023-05-03T20:45:14.972Z,51.04
2023-05-03T20:47:42.394Z,50.77
2023-05-03T20:50:10.296Z,49.57
2023-05-03T20:52:37.773Z,49.70
2023-05-03T20:55:06.037Z,49.07
2023-05-03T20:57:33.509Z,49.57
2023-05-03T21:00:02.221Z,48.07
2023-05-03T21:02:31.358Z,47.67
2023-05-03T21:04:58.872Z,47.43
2023-05-03T21:07:26.432Z,47.97
2023-05-03T21:09:53.899Z,48.17
2023-05-03T21:12:21.357Z,48.00
2023-05-03T21:14:48.773Z,48.63
2023-05-03T21:17:16.226Z,48.73
2023-05-03T21:19:45.037Z,48.74
2023-05-03T21:22:12.464Z,48.93
2023-05-03T21:24:39.921Z,47.68
2023-05-03T21:27:07.406Z,48.82
2023-05-03T21:29:34.835Z,49.38
2023-05-03T21:32:02.441Z,49.07
2023-05-03T21:34:29.960Z,49.32
2023-05-03T21:36:58.897Z,49.08
2023-05-03T21:39:26.386Z,48.81
2023-05-03T21:41:54.344Z,49.22
2023-05-03T21:44:21.782Z,49.51
2023-05-03T21:46:49.373Z,49.73
2023-05-03T21:49:17.089Z,49.61
2023-05-03T21:51:44.993Z,49.77
2023-05-03T21:54:13.824Z,48.43
2023-05-03T21:56:41.750Z,49.17
2023-05-03T21:59:09.230Z,49.51
2023-05-03T22:01:36.868Z,49.08
2023-05-03T22:04:04.885Z,49.35
2023-05-03T22:06:32.584Z,49.17
2023-05-03T22:09:00.058Z,50.25
2023-05-03T22:11:29.114Z,50.95
2023-05-03T22:14:07.549Z,50.69
2023-05-03T22:16:36.202Z,51.63
2023-05-03T22:19:04.205Z,52.42
2023-05-03T22:21:31.872Z,52.60
2023-05-03T22:23:59.371Z,53.27
2023-05-03T22:26:26.863Z,53.15
2023-05-03T22:28:55.730Z,53.25
2023-05-03T22:31:23.422Z,52.18
2023-05-03T22:33:50.883Z,53.46
2023-05-03T22:36:18.319Z,54.13
2023-05-03T22:38:45.816Z,53.80
2023-05-03T22:41:13.251Z,53.88
2023-05-03T22:43:41.768Z,55.84
2023-05-03T22:46:10.667Z,55.68
2023-05-03T22:48:38.187Z,55.45
2023-05-03T22:51:06.147Z,55.53
2023-05-03T22:53:33.606Z,55.98
2023-05-03T22:56:04.090Z,56.38
2023-05-03T22:58:31.575Z,57.15
2023-05-03T23:00:59.057Z,57.48
2023-05-03T23:03:28.048Z,57.05
2023-05-03T23:05:56.016Z,57.35
2023-05-03T23:08:23.486Z,58.17
2023-05-03T23:10:53.964Z,57.98
2023-05-03T23:13:21.465Z,59.22
2023-05-03T23:15:48.946Z,59.84
2023-05-03T23:18:16.530Z,60.11
2023-05-03T23:20:45.327Z,60.89
2023-05-03T23:23:12.776Z,60.48
2023-05-03T23:25:40.228Z,60.10
2023-05-03T23:28:07.701Z,59.74
2023-05-03T23:30:35.652Z,60.41
2023-05-03T23:33:03.566Z,59.84
2023-05-03T23:35:31.593Z,60.62
2023-05-03T23:38:00.431Z,59.95
2023-05-03T23:40:27.937Z,60.28
2023-05-03T23:42:55.484Z,60.67
2023-05-03T23:45:22.969Z,60.82
2023-05-03T23:47:50.649Z,61.10
2023-05-03T23:50:18.320Z,60.63
2023-05-03T23:52:45.753Z,60.56
2023-05-03T23:55:14.589Z,60.09
2023-05-03T23:57:42.119Z,60.67
